KHIF

Hill AFB Airport

Ogden, Utah, USA
METAR KHIF 200703Z AUTO 01005KT 10SM FEW035 BKN044 BKN055 M07/M11 A2980 RMK AO2 SLP123 $
Observed Flight Rules
Feb-20 @ 07:03 UTC (24 minutes ago) Visual Flight Rules
Wind Visibility Clouds
10° at 5 knots 10 miles
  • Few at 3,500' AGL
  • Broken at 4,400' AGL
  • Broken at 5,500' AGL
Temperatures Readings
Current -7°C / 19°F
Dewpoint -11°C / 12°F
Humidity 73%
Altimeter 29.8" Hg
Pressure 1012.3 hPa
Elevation 1459
METAR KHIF 200703Z AUTO 01005KT 10SM FEW035 BKN044 BKN055 M07/M11 A2980 RMK AO2 SLP123 $
Observed Flight Rules
Feb-20 @ 07:03 UTC
(24 minutes ago)
VFR
Wind Visibility
10° at 5 knots 10 miles
Clouds
  • Few at 3,500' AGL
  • Broken at 4,400' AGL
  • Broken at 5,500' AGL
Temperature Dewpoint
-7°C / 19°F -11°C / 12°F
Humidity Altimeter Pressure
73% 29.8" Hg 1012.3 hPa